createdAt,value
2022-08-28T00:01:57.305Z,13.56
2022-08-28T00:04:23.748Z,13.55
2022-08-28T00:06:50.170Z,13.66
2022-08-28T00:09:16.612Z,13.69
2022-08-28T00:11:43.136Z,13.63
2022-08-28T00:14:10.652Z,13.52
2022-08-28T00:16:38.532Z,13.39
2022-08-28T00:19:05.870Z,13.40
2022-08-28T00:21:37.068Z,13.50
2022-08-28T00:24:03.772Z,13.53
2022-08-28T00:26:48.802Z,13.58
2022-08-28T00:29:15.194Z,13.59
2022-08-28T00:31:41.674Z,13.77
2022-08-28T00:34:09.348Z,13.68
2022-08-28T00:36:37.153Z,13.68
2022-08-28T00:39:05.877Z,13.62
2022-08-28T00:41:34.441Z,13.54
2022-08-28T00:44:21.902Z,13.35
2022-08-28T00:46:50.944Z,13.18
2022-08-28T00:49:21.058Z,13.15
2022-08-28T00:52:07.409Z,13.08
2022-08-28T00:54:38.701Z,13.06
2022-08-28T00:57:08.748Z,13.15
2022-08-28T00:59:36.233Z,13.24
2022-08-28T01:02:03.642Z,13.25
2022-08-28T01:04:32.318Z,13.22
2022-08-28T01:07:02.202Z,13.36
2022-08-28T01:09:31.807Z,13.43
2022-08-28T01:12:03.518Z,13.40
2022-08-28T01:14:32.073Z,13.18
2022-08-28T01:16:58.854Z,13.29
2022-08-28T01:19:56.955Z,13.39
2022-08-28T01:22:44.331Z,13.18
2022-08-28T01:25:16.680Z,13.08
2022-08-28T01:27:43.188Z,13.15
2022-08-28T01:30:18.005Z,13.26
2022-08-28T01:32:48.155Z,13.38
2022-08-28T01:35:17.867Z,13.45
2022-08-28T01:37:44.874Z,13.50
2022-08-28T01:40:14.962Z,13.43
2022-08-28T01:42:43.453Z,13.34
2022-08-28T01:45:13.624Z,13.24
2022-08-28T01:47:41.597Z,13.26
2022-08-28T01:50:10.731Z,13.21
2022-08-28T01:52:38.987Z,13.09
2022-08-28T01:55:07.162Z,13.02
2022-08-28T01:57:34.976Z,13.03
2022-08-28T02:00:01.676Z,12.91
2022-08-28T02:02:29.185Z,12.86
2022-08-28T02:04:55.577Z,12.91
2022-08-28T02:07:21.949Z,13.02
2022-08-28T02:09:48.336Z,13.03
2022-08-28T02:12:14.756Z,12.97
2022-08-28T02:14:41.205Z,12.90
2022-08-28T02:17:07.601Z,12.94
2022-08-28T02:19:34.134Z,12.94
2022-08-28T02:22:00.587Z,13.05
2022-08-28T02:24:27.039Z,13.04
2022-08-28T02:26:53.547Z,13.05
2022-08-28T02:29:19.973Z,13.09
2022-08-28T02:31:46.350Z,13.23
2022-08-28T02:34:12.750Z,13.23
2022-08-28T02:36:42.559Z,13.08
2022-08-28T02:39:09.378Z,13.10
2022-08-28T02:41:35.912Z,13.13
2022-08-28T02:44:02.487Z,13.10
2022-08-28T02:46:29.089Z,13.01
2022-08-28T02:48:56.160Z,12.93
2022-08-28T02:51:23.157Z,12.81
2022-08-28T02:53:50.442Z,12.76
2022-08-28T02:56:17.145Z,12.83
2022-08-28T02:58:44.134Z,12.87
2022-08-28T03:01:13.439Z,12.90
2022-08-28T03:03:41.438Z,12.96
2022-08-28T03:06:08.709Z,12.99
2022-08-28T03:08:35.209Z,13.10
2022-08-28T03:11:01.788Z,13.17
2022-08-28T03:13:28.461Z,13.13
2022-08-28T03:15:55.650Z,13.11
2022-08-28T03:18:23.225Z,13.08
2022-08-28T03:20:49.662Z,13.08
2022-08-28T03:23:27.806Z,13.04
2022-08-28T03:26:05.051Z,13.13
2022-08-28T03:28:35.041Z,13.22
2022-08-28T03:31:02.402Z,13.15
2022-08-28T03:33:28.880Z,13.05
2022-08-28T03:35:55.659Z,12.93
2022-08-28T03:38:22.515Z,12.93
2022-08-28T03:40:52.132Z,12.88
2022-08-28T03:43:22.253Z,12.88
2022-08-28T03:45:57.596Z,12.76
2022-08-28T03:48:26.328Z,12.79
2022-08-28T03:50:53.863Z,12.85
2022-08-28T03:53:23.978Z,12.76
2022-08-28T03:55:51.206Z,12.74
2022-08-28T03:58:18.846Z,12.73
2022-08-28T04:00:46.150Z,12.63
2022-08-28T04:03:13.790Z,12.72
2022-08-28T04:05:41.438Z,12.78
2022-08-28T04:08:08.133Z,12.72
2022-08-28T04:10:35.797Z,12.71
2022-08-28T04:13:03.210Z,12.58
2022-08-28T04:15:29.620Z,12.48
2022-08-28T04:17:56.472Z,12.49
2022-08-28T04:20:23.096Z,12.57
2022-08-28T04:22:49.979Z,12.68
2022-08-28T04:25:22.385Z,12.73
2022-08-28T04:27:50.910Z,12.68
2022-08-28T04:30:18.737Z,12.63
2022-08-28T04:32:45.563Z,12.59
2022-08-28T04:35:13.108Z,12.58
2022-08-28T04:37:40.453Z,12.63
2022-08-28T04:40:10.733Z,12.73
2022-08-28T04:42:39.792Z,12.75
2022-08-28T04:45:06.958Z,12.73
2022-08-28T04:47:39.262Z,12.77
2022-08-28T04:50:06.975Z,12.86
2022-08-28T04:52:33.531Z,12.87
2022-08-28T04:55:00.120Z,12.85
2022-08-28T04:57:26.644Z,12.79
2022-08-28T04:59:53.148Z,12.80
2022-08-28T05:02:19.865Z,12.97
2022-08-28T05:04:47.286Z,13.09
2022-08-28T05:07:14.313Z,13.24
2022-08-28T05:09:40.701Z,13.31
2022-08-28T05:12:07.250Z,13.40
2022-08-28T05:14:33.699Z,13.43
2022-08-28T05:17:00.123Z,13.44
2022-08-28T05:19:28.007Z,13.44
2022-08-28T05:21:54.882Z,13.63
2022-08-28T05:24:22.396Z,13.72
2022-08-28T05:26:48.982Z,13.68
2022-08-28T05:29:16.726Z,13.76
2022-08-28T05:31:43.389Z,13.87
2022-08-28T05:34:10.490Z,13.99
2022-08-28T05:36:38.148Z,14.01
2022-08-28T05:39:08.092Z,13.96
2022-08-28T05:41:34.606Z,13.86
2022-08-28T05:44:04.705Z,13.83
2022-08-28T05:46:31.711Z,13.99
2022-08-28T05:49:00.130Z,14.21
2022-08-28T05:51:27.538Z,14.44
2022-08-28T05:53:54.906Z,14.39
2022-08-28T05:56:25.796Z,14.49
2022-08-28T05:58:52.611Z,14.77
2022-08-28T06:01:28.583Z,15.06
2022-08-28T06:03:58.572Z,15.43
2022-08-28T06:06:27.513Z,15.77
2022-08-28T06:09:00.126Z,16.12
2022-08-28T06:11:30.348Z,16.46
2022-08-28T06:14:02.599Z,16.74
2022-08-28T06:16:31.119Z,16.97
2022-08-28T06:18:58.113Z,17.22
2022-08-28T06:21:24.928Z,17.29
2022-08-28T06:23:51.893Z,17.18
2022-08-28T06:26:18.619Z,17.29
2022-08-28T06:28:45.021Z,17.47
2022-08-28T06:31:23.772Z,17.59
2022-08-28T06:33:56.084Z,17.74
2022-08-28T06:36:27.456Z,17.78
2022-08-28T06:38:54.952Z,18.11
2022-08-28T06:41:21.839Z,18.58
2022-08-28T06:43:48.258Z,19.09
2022-08-28T06:46:14.778Z,18.99
2022-08-28T06:48:41.423Z,18.87
2022-08-28T06:51:09.938Z,18.67
2022-08-28T06:53:37.757Z,18.68
2022-08-28T06:56:26.570Z,18.83
2022-08-28T06:58:55.090Z,19.02
2022-08-28T07:01:25.719Z,18.77
2022-08-28T07:03:53.882Z,18.83
2022-08-28T07:06:23.335Z,18.54
2022-08-28T07:08:51.012Z,18.66
2022-08-28T07:11:26.202Z,18.83
2022-08-28T07:13:53.870Z,18.91
2022-08-28T07:16:22.403Z,19.31
2022-08-28T07:18:48.962Z,18.93
2022-08-28T07:21:15.602Z,19.25
2022-08-28T07:23:44.217Z,19.16
2022-08-28T07:26:17.646Z,18.81
2022-08-28T07:28:45.352Z,18.86
2022-08-28T07:31:18.530Z,19.00
2022-08-28T07:33:45.358Z,19.13
2022-08-28T07:36:15.760Z,19.65
2022-08-28T07:38:52.420Z,19.77
2022-08-28T07:41:26.551Z,20.01
2022-08-28T07:44:11.830Z,19.90
2022-08-28T07:46:39.561Z,19.94
2022-08-28T07:49:07.604Z,20.27
2022-08-28T07:51:35.066Z,20.51
2022-08-28T07:54:03.818Z,20.15
2022-08-28T07:56:30.948Z,20.49
2022-08-28T07:58:58.806Z,20.71
2022-08-28T08:01:27.086Z,20.62
2022-08-28T08:03:55.946Z,20.93
2022-08-28T08:06:33.831Z,21.03
2022-08-28T08:09:01.863Z,20.99
2022-08-28T08:11:28.431Z,20.97
2022-08-28T08:14:03.813Z,21.02
2022-08-28T08:16:34.597Z,21.50
2022-08-28T08:19:02.332Z,22.25
2022-08-28T08:21:30.559Z,21.68
2022-08-28T08:23:58.264Z,21.16
2022-08-28T08:26:28.217Z,21.15
2022-08-28T08:28:56.618Z,21.03
2022-08-28T08:31:32.838Z,21.28
2022-08-28T08:34:01.968Z,21.59
2022-08-28T08:36:29.724Z,22.00
2022-08-28T08:38:59.848Z,22.20
2022-08-28T08:41:38.974Z,22.83
2022-08-28T08:44:13.828Z,21.97
2022-08-28T08:46:49.453Z,22.05
2022-08-28T08:49:22.610Z,22.17
2022-08-28T08:52:04.999Z,22.67
2022-08-28T08:54:31.716Z,22.51
2022-08-28T08:57:02.162Z,21.43
2022-08-28T08:59:31.908Z,20.85
2022-08-28T09:02:07.204Z,20.51
2022-08-28T09:04:42.858Z,20.38
2022-08-28T09:07:27.343Z,20.33
2022-08-28T09:09:56.164Z,20.54
2022-08-28T09:12:27.959Z,21.25
2022-08-28T09:15:17.561Z,20.82
2022-08-28T09:17:54.478Z,20.48
2022-08-28T09:20:32.641Z,20.42
2022-08-28T09:23:00.275Z,20.58
2022-08-28T09:25:51.430Z,20.02
2022-08-28T09:28:28.195Z,19.76
2022-08-28T09:31:31.744Z,19.85
2022-08-28T09:34:19.436Z,20.32
2022-08-28T09:36:46.101Z,19.94
2022-08-28T09:39:19.959Z,19.83
2022-08-28T09:42:12.172Z,20.01
2022-08-28T09:45:14.941Z,19.69
2022-08-28T09:47:48.828Z,20.10
2022-08-28T09:50:23.718Z,20.99
2022-08-28T09:52:51.878Z,21.55
2022-08-28T09:55:27.093Z,21.95
2022-08-28T09:57:54.554Z,21.57
2022-08-28T10:00:22.769Z,20.75
2022-08-28T10:03:17.298Z,20.07
2022-08-28T10:06:01.630Z,19.68
2022-08-28T10:08:56.369Z,19.74
2022-08-28T10:12:01.778Z,19.86
2022-08-28T10:14:53.060Z,19.87
2022-08-28T10:17:49.929Z,20.01
2022-08-28T10:20:39.980Z,20.48
2022-08-28T10:23:33.741Z,19.99
2022-08-28T10:26:23.778Z,19.73
2022-08-28T10:29:18.156Z,19.65
2022-08-28T10:32:07.219Z,19.48
2022-08-28T10:35:18.758Z,19.09
2022-08-28T10:37:51.297Z,18.98
2022-08-28T10:40:29.053Z,18.82
2022-08-28T10:43:08.762Z,18.67
2022-08-28T10:45:35.660Z,18.82
2022-08-28T10:48:18.570Z,19.61
2022-08-28T10:50:49.211Z,20.86
2022-08-28T10:53:21.286Z,21.86
2022-08-28T10:56:02.701Z,21.53
2022-08-28T10:58:34.198Z,20.87
2022-08-28T11:01:05.745Z,20.72
2022-08-28T11:03:40.618Z,20.78
2022-08-28T11:06:28.538Z,20.61
2022-08-28T11:08:58.567Z,20.46
2022-08-28T11:11:46.561Z,20.03
2022-08-28T11:14:24.123Z,20.06
2022-08-28T11:16:51.396Z,21.10
2022-08-28T11:19:17.951Z,22.03
2022-08-28T11:22:00.186Z,21.41
2022-08-28T11:24:44.113Z,20.74
2022-08-28T11:27:26.856Z,20.07
2022-08-28T11:29:58.317Z,19.63
2022-08-28T11:32:39.027Z,19.54
2022-08-28T11:35:37.886Z,19.46
2022-08-28T11:38:04.946Z,19.51
2022-08-28T11:40:31.793Z,19.94
2022-08-28T11:43:17.039Z,20.19
2022-08-28T11:45:45.816Z,20.46
2022-08-28T11:48:22.820Z,21.16
2022-08-28T11:50:57.004Z,20.76
2022-08-28T11:53:32.550Z,20.75
2022-08-28T11:56:31.817Z,20.91
2022-08-28T11:59:07.940Z,21.43
2022-08-28T12:01:36.810Z,21.40
2022-08-28T12:04:08.426Z,20.82
2022-08-28T12:06:54.468Z,20.62
2022-08-28T12:09:43.113Z,20.42
2022-08-28T12:12:21.616Z,20.46
2022-08-28T12:14:47.961Z,20.48
2022-08-28T12:17:17.328Z,20.96
2022-08-28T12:19:56.377Z,21.46
2022-08-28T12:22:26.508Z,21.18
2022-08-28T12:25:04.528Z,20.79
2022-08-28T12:27:31.825Z,20.73
2022-08-28T12:30:01.937Z,20.68
2022-08-28T12:32:39.491Z,20.56
2022-08-28T12:35:20.549Z,20.64
2022-08-28T12:38:09.285Z,20.88
2022-08-28T12:40:41.567Z,21.31
2022-08-28T12:43:11.241Z,21.02
2022-08-28T12:46:02.399Z,20.82
2022-08-28T12:48:33.045Z,20.64
2022-08-28T12:51:06.044Z,20.39
2022-08-28T12:53:40.618Z,21.18
2022-08-28T12:56:10.153Z,23.15
2022-08-28T12:58:39.380Z,24.47
2022-08-28T13:01:27.487Z,24.75
2022-08-28T13:04:01.422Z,24.51
2022-08-28T13:06:35.882Z,23.21
2022-08-28T13:09:14.381Z,21.54
2022-08-28T13:11:46.548Z,20.78
2022-08-28T13:14:13.128Z,20.54
2022-08-28T13:16:43.102Z,20.50
2022-08-28T13:19:14.515Z,21.63
2022-08-28T13:21:46.854Z,23.63
2022-08-28T13:24:27.086Z,25.52
2022-08-28T13:27:16.521Z,23.73
2022-08-28T13:29:59.845Z,21.57
2022-08-28T13:32:27.995Z,20.82
2022-08-28T13:35:09.144Z,20.39
2022-08-28T13:37:58.697Z,20.17
2022-08-28T13:40:56.878Z,20.08
2022-08-28T13:43:26.295Z,19.92
2022-08-28T13:45:53.453Z,19.67
2022-08-28T13:48:25.824Z,19.74
2022-08-28T13:51:07.060Z,23.76
2022-08-28T13:53:36.521Z,26.35
2022-08-28T13:56:03.419Z,26.24
2022-08-28T13:58:29.873Z,27.10
2022-08-28T14:00:56.533Z,26.55
2022-08-28T14:03:39.002Z,23.29
2022-08-28T14:06:14.595Z,21.80
2022-08-28T14:08:43.753Z,20.88
2022-08-28T14:11:12.782Z,20.58
2022-08-28T14:13:40.873Z,20.27
2022-08-28T14:16:16.654Z,20.35
2022-08-28T14:18:43.196Z,20.19
2022-08-28T14:21:09.629Z,20.35
2022-08-28T14:23:36.028Z,21.54
2022-08-28T14:26:04.499Z,21.45
2022-08-28T14:28:30.938Z,20.40
2022-08-28T14:30:57.356Z,19.89
2022-08-28T14:33:23.817Z,19.71
2022-08-28T14:35:50.467Z,19.56
2022-08-28T14:38:17.135Z,19.59
2022-08-28T14:40:44.424Z,22.70
2022-08-28T14:43:12.404Z,25.12
2022-08-28T14:45:49.659Z,26.44
2022-08-28T14:48:18.317Z,27.05
2022-08-28T14:50:47.131Z,27.46
2022-08-28T14:53:13.942Z,27.50
2022-08-28T14:55:50.155Z,28.27
2022-08-28T14:58:18.601Z,26.45
2022-08-28T15:00:48.727Z,23.74
2022-08-28T15:03:16.235Z,21.98
2022-08-28T15:05:42.853Z,21.65
2022-08-28T15:08:14.878Z,21.30
2022-08-28T15:10:42.610Z,21.13
2022-08-28T15:13:10.431Z,20.79
2022-08-28T15:15:39.436Z,20.81
2022-08-28T15:18:07.256Z,20.98
2022-08-28T15:20:45.012Z,20.73
2022-08-28T15:23:13.866Z,20.82
2022-08-28T15:25:40.803Z,20.81
2022-08-28T15:28:07.424Z,20.37
2022-08-28T15:30:34.597Z,20.04
2022-08-28T15:33:01.581Z,20.40
2022-08-28T15:35:28.233Z,20.10
2022-08-28T15:37:54.705Z,19.72
2022-08-28T15:40:40.110Z,19.94
2022-08-28T15:43:07.613Z,20.18
2022-08-28T15:45:39.158Z,20.03
2022-08-28T15:48:06.755Z,19.93
2022-08-28T15:50:33.563Z,19.83
2022-08-28T15:52:59.951Z,19.97
2022-08-28T15:55:26.854Z,20.04
2022-08-28T15:57:54.488Z,19.91
2022-08-28T16:00:21.644Z,20.09
2022-08-28T16:02:48.121Z,19.97
2022-08-28T16:05:15.288Z,19.75
2022-08-28T16:07:42.059Z,19.50
2022-08-28T16:10:09.921Z,19.69
2022-08-28T16:12:39.229Z,19.72
2022-08-28T16:15:06.891Z,19.68
2022-08-28T16:17:33.305Z,19.59
2022-08-28T16:19:59.821Z,19.82
2022-08-28T16:22:26.248Z,20.09
2022-08-28T16:24:52.689Z,20.28
2022-08-28T16:27:19.325Z,20.26
2022-08-28T16:29:49.547Z,20.61
2022-08-28T16:32:19.350Z,20.83
2022-08-28T16:34:45.755Z,20.89
2022-08-28T16:37:12.579Z,22.11
2022-08-28T16:39:38.977Z,22.79
2022-08-28T16:42:05.506Z,23.63
2022-08-28T16:44:32.092Z,24.67
2022-08-28T16:46:58.604Z,24.08
2022-08-28T16:49:25.259Z,24.92
2022-08-28T16:51:51.743Z,23.48
2022-08-28T16:54:18.449Z,24.35
2022-08-28T16:56:45.520Z,24.61
2022-08-28T16:59:12.606Z,23.59
2022-08-28T17:01:40.859Z,25.80
2022-08-28T17:04:10.011Z,25.17
2022-08-28T17:06:36.417Z,23.22
2022-08-28T17:09:02.961Z,23.72
2022-08-28T17:11:29.459Z,22.46
2022-08-28T17:13:56.641Z,21.30
2022-08-28T17:16:23.994Z,22.34
2022-08-28T17:18:52.657Z,22.74
2022-08-28T17:24:04.631Z,21.89
2022-08-28T17:26:31.051Z,21.89
2022-08-28T17:28:57.464Z,20.70
2022-08-28T17:31:24.073Z,19.83
2022-08-28T17:33:50.675Z,19.35
2022-08-28T17:36:30.698Z,19.03
2022-08-28T17:39:02.089Z,18.73
2022-08-28T17:41:28.536Z,18.60
2022-08-28T17:43:54.978Z,18.36
2022-08-28T17:46:21.403Z,18.25
2022-08-28T17:48:53.615Z,18.12
2022-08-28T17:51:23.487Z,18.01
2022-08-28T17:54:10.170Z,17.94
2022-08-28T17:56:36.601Z,17.91
2022-08-28T17:59:03.083Z,17.78
2022-08-28T18:01:29.530Z,17.68
2022-08-28T18:03:56.020Z,17.61
2022-08-28T18:06:22.830Z,17.48
2022-08-28T18:08:51.731Z,17.34
2022-08-28T18:11:19.066Z,17.18
2022-08-28T18:13:46.281Z,17.05
2022-08-28T18:16:12.891Z,16.92
2022-08-28T18:18:39.476Z,16.78
2022-08-28T18:21:06.036Z,16.68
2022-08-28T18:23:32.709Z,16.59
2022-08-28T18:25:59.105Z,16.51
2022-08-28T18:28:26.573Z,16.39
2022-08-28T18:30:53.681Z,16.23
2022-08-28T18:33:22.736Z,16.15
2022-08-28T18:35:50.407Z,16.07
2022-08-28T18:38:18.330Z,15.97
2022-08-28T18:40:45.245Z,15.88
2022-08-28T18:43:12.391Z,15.80
2022-08-28T18:45:38.923Z,15.72
2022-08-28T18:48:07.855Z,15.66
2022-08-28T18:50:35.456Z,15.62
2022-08-28T18:53:02.338Z,15.56
2022-08-28T18:55:30.987Z,15.52
2022-08-28T18:57:59.916Z,15.44
2022-08-28T19:00:26.865Z,15.36
2022-08-28T19:02:53.924Z,15.37
2022-08-28T19:05:21.207Z,15.37
2022-08-28T19:07:48.522Z,15.33
2022-08-28T19:10:32.594Z,15.27
2022-08-28T19:13:01.013Z,15.21
2022-08-28T19:15:28.342Z,15.13
2022-08-28T19:17:55.078Z,15.06
2022-08-28T19:20:21.796Z,14.98
2022-08-28T19:22:48.832Z,14.90
2022-08-28T19:25:27.552Z,14.82
2022-08-28T19:27:58.917Z,14.76
2022-08-28T19:30:26.999Z,14.67
2022-08-28T19:32:53.443Z,14.60
2022-08-28T19:35:19.977Z,14.56
2022-08-28T19:37:46.907Z,14.47
2022-08-28T19:40:14.060Z,14.38
2022-08-28T19:42:40.807Z,14.33
2022-08-28T19:45:09.549Z,14.25
2022-08-28T19:47:37.258Z,14.23
2022-08-28T19:50:05.423Z,14.18
2022-08-28T19:52:33.081Z,14.12
2022-08-28T19:55:00.834Z,14.05
2022-08-28T19:57:27.306Z,13.99
2022-08-28T19:59:53.676Z,13.97
2022-08-28T20:02:22.721Z,13.90
2022-08-28T20:04:49.188Z,13.74
2022-08-28T20:07:15.588Z,13.62
2022-08-28T20:09:42.042Z,13.56
2022-08-28T20:12:08.423Z,13.48
2022-08-28T20:14:35.530Z,13.46
2022-08-28T20:17:01.933Z,13.41
2022-08-28T20:19:28.376Z,13.36
2022-08-28T20:21:54.867Z,13.36
2022-08-28T20:24:24.057Z,13.28
2022-08-28T20:26:51.848Z,13.19
2022-08-28T20:29:18.917Z,13.21
2022-08-28T20:31:47.774Z,13.31
2022-08-28T20:34:17.621Z,13.25
2022-08-28T20:36:44.778Z,13.07
2022-08-28T20:39:12.302Z,13.00
2022-08-28T20:41:40.966Z,12.93
2022-08-28T20:44:09.528Z,12.91
2022-08-28T20:46:40.690Z,12.90
2022-08-28T20:49:10.128Z,12.87
2022-08-28T20:51:54.960Z,12.79
2022-08-28T20:54:22.324Z,12.70
2022-08-28T20:56:50.877Z,12.71
2022-08-28T20:59:18.007Z,12.67
2022-08-28T21:01:44.611Z,12.68
2022-08-28T21:04:11.104Z,12.74
2022-08-28T21:06:38.248Z,12.73
2022-08-28T21:09:04.706Z,12.67
2022-08-28T21:11:31.168Z,12.67
2022-08-28T21:13:57.788Z,12.64
2022-08-28T21:16:24.297Z,12.62
2022-08-28T21:19:14.500Z,12.59
2022-08-28T21:21:37.809Z,12.56
2022-08-28T21:24:06.327Z,12.56
2022-08-28T21:26:33.126Z,12.50
2022-08-28T21:29:00.738Z,12.49
2022-08-28T21:31:27.299Z,12.58
2022-08-28T21:33:53.800Z,12.70
2022-08-28T21:36:20.265Z,12.75
2022-08-28T21:38:47.302Z,12.74
2022-08-28T21:41:14.992Z,12.60
2022-08-28T21:43:44.073Z,12.55
2022-08-28T21:46:13.242Z,12.57
2022-08-28T21:48:41.285Z,12.60
2022-08-28T21:51:10.361Z,12.68
2022-08-28T21:53:37.246Z,12.71
2022-08-28T21:56:04.734Z,12.86
2022-08-28T21:58:31.753Z,12.89
2022-08-28T22:00:58.379Z,12.84
2022-08-28T22:03:26.925Z,12.86
2022-08-28T22:05:54.158Z,12.99
2022-08-28T22:08:23.377Z,13.14
2022-08-28T22:10:49.793Z,13.17
2022-08-28T22:13:17.113Z,13.12
2022-08-28T22:15:45.469Z,13.15
2022-08-28T22:18:13.643Z,13.27
2022-08-28T22:21:00.600Z,13.31
2022-08-28T22:23:29.323Z,13.27
2022-08-28T22:25:55.768Z,13.21
2022-08-28T22:28:22.164Z,13.16
2022-08-28T22:30:48.676Z,13.14
2022-08-28T22:33:15.532Z,13.14
2022-08-28T22:35:41.996Z,13.19
2022-08-28T22:38:08.690Z,13.23
2022-08-28T22:40:35.137Z,13.36
2022-08-28T22:43:01.571Z,13.40
2022-08-28T22:45:27.984Z,13.36
2022-08-28T22:47:54.407Z,13.28
2022-08-28T22:50:20.803Z,13.20
2022-08-28T22:52:50.378Z,13.07
2022-08-28T22:55:19.851Z,13.05
2022-08-28T22:57:46.850Z,13.13
2022-08-28T23:00:17.953Z,13.19
2022-08-28T23:02:44.566Z,13.30
2022-08-28T23:05:11.641Z,13.43
2022-08-28T23:07:38.251Z,13.59
2022-08-28T23:10:05.905Z,13.63
2022-08-28T23:12:34.368Z,13.60
2022-08-28T23:15:02.378Z,13.54
2022-08-28T23:17:28.871Z,13.48
2022-08-28T23:19:55.652Z,13.46
2022-08-28T23:22:22.077Z,13.49
2022-08-28T23:24:48.772Z,13.47
2022-08-28T23:27:35.311Z,13.50
2022-08-28T23:30:04.046Z,13.51
2022-08-28T23:32:30.473Z,13.53
2022-08-28T23:34:56.949Z,13.57
2022-08-28T23:37:23.773Z,13.61
2022-08-28T23:39:50.167Z,13.64
2022-08-28T23:42:17.440Z,13.70
2022-08-28T23:44:43.973Z,13.74
2022-08-28T23:47:12.212Z,13.74
2022-08-28T23:49:41.555Z,13.79
2022-08-28T23:52:11.105Z,13.79
2022-08-28T23:54:38.742Z,13.77
2022-08-28T23:57:05.447Z,13.81
2022-08-28T23:59:32.553Z,13.82
